Historique des mesures à Cassis (13260), France
Quotidien Résumé Mai 8, 2017 Unités:  Métrique    US   Métrique/US
« Précédent (Jour)
Suivant (Jour) »
Quotidien Hebdomadaire Mensuel Annuel Période au choix
  Maximum: Minimum: Moyenne:
Température: TemperatureC °C 13.6 °C 16.6 °C
Point de rosée: DewpointC °C 6.4 °C 7.6 °C
Humidité: Humidity % 45 % 53 %
Vitesse du vent: 0 km/h 0 km/h 24.9 km/h
Rafales: 0 km/h - -
Vent:- - South
Pression: PressurehPa hPa 1006.7 hPa -
Précipitations: 0.0 mm    
Historical Graphs
 
 
Mesures pour : Mai 8, 2017
Heure Temperature Point de rosée Pression Vent Vitesse du vent Rafales Humidité Pluie (par heure) Conditions
TemperatureC °C DewpointC °C PressurehPa hPa Calm     Humidity % HourlyPrecipMM mm SoftwareType W/m2
00:10 16.5 °C 7.7 °C 1009.7 hPa NW 42.2 km/h 48.1 km/h 56 % 0.0 mm open2300-1.11 W/m2
01:10 15.8 °C 8.1 °C 1009.7 hPa North 37.5 km/h 79.2 km/h 60 % 0.0 mm open2300-1.11 W/m2
02:10 15.1 °C 8.1 °C 1010.4 hPa NNE 27.7 km/h 42.2 km/h 63 % 0.0 mm open2300-1.11 W/m2
03:10 14.6 °C 8.3 °C 1010.0 hPa NW 41.2 km/h 41.2 km/h 66 % 0.0 mm open2300-1.11 W/m2
04:10 14.1 °C 8.2 °C 1009.7 hPa North 9.8 km/h 14 km/h 68 % 0.0 mm open2300-1.11 W/m2
05:10 13.6 °C 8.2 °C 1009.4 hPa NW 33.6 km/h 45.4 km/h 70 % 0.0 mm open2300-1.11 W/m2
06:10 13.6 °C 7.8 °C 1009.0 hPa Calm   8 km/h 68 % 0.0 mm open2300-1.11 W/m2
07:10 13.8 °C 7.8 °C 1009.0 hPa NW 29.5 km/h 37 km/h 67 % 0.0 mm open2300-1.11 W/m2
08:10 15.1 °C 8.1 °C 1008.7 hPa NW 22 km/h 24.8 km/h 63 % 0.0 mm open2300-1.11 W/m2
09:10 15.1 °C 7.6 °C 1008.0 hPa NNW 44.6 km/h 73.5 km/h 61 % 0.0 mm open2300-1.11 W/m2
10:10 16.8 °C 6.6 °C 1007.7 hPa NNW 37 km/h 85.1 km/h 51 % 0.0 mm open2300-1.11 W/m2
11:11 18.3 °C 7.4 °C 1008.0 hPa WNW 37.5 km/h 37.5 km/h 49 % 0.0 mm open2300-1.11 W/m2
12:10 20.4 °C 8.0 °C 1009.7 hPa North 15 km/h 37 km/h 45 % 0.0 mm open2300-1.11 W/m2
13:10 20.4 °C 8.3 °C 1009.4 hPa North 38.3 km/h 52 km/h 46 % 0.0 mm open2300-1.11 W/m2
14:10 20.8 °C 8.4 °C 1009.4 hPa ENE 26.7 km/h 47.3 km/h 45 % 0.0 mm open2300-1.11 W/m2
15:10 20.9 °C 8.4 °C 1008.7 hPa NW 25.4 km/h 27.2 km/h 45 % 0.0 mm open2300-1.11 W/m2
16:10 21.2 °C 9.1 °C 1008.4 hPa WNW 36.5 km/h 37 km/h 46 % 0.0 mm open2300-1.11 W/m2
17:10 20.9 °C 8.8 °C 1008.0 hPa NW 12.2 km/h 17.4 km/h 46 % 0.0 mm open2300-1.11 W/m2
18:10 20.4 °C 8.7 °C 1007.3 hPa North 12.2 km/h 21.6 km/h 47 % 0.0 mm open2300-1.11 W/m2
19:10 19.5 °C 8.2 °C 1006.7 hPa NNW 29 km/h 90.4 km/h 48 % 0.0 mm open2300-1.11 W/m2
20:10 18.4 °C 7.8 °C 1007.3 hPa North 13.2 km/h 35.2 km/h 50 % 0.0 mm open2300-1.11 W/m2
21:10 17.0 °C 7.1 °C 1007.3 hPa North 31.9 km/h 31.9 km/h 52 % 0.0 mm open2300-1.11 W/m2
22:10 16.1 °C 6.5 °C 1008.0 hPa NNW 15 km/h 33.6 km/h 53 % 0.0 mm open2300-1.11 W/m2
23:10 15.4 °C 6.4 °C 1008.4 hPa ENE 4.2 km/h 8 km/h 55 % 0.0 mm open2300-1.11 W/m2
Observations météo à CASSIS
WU-History script by Weather Underground - 1 mb